sensor_id;sensor_type;location;lat;lon;timestamp;temperature;humidity
39847;DHT22;25517;52.422;10.782;2023-04-25T00:01:37;8.40;99.90
39847;DHT22;25517;52.422;10.782;2023-04-25T00:04:03;8.40;99.90
39847;DHT22;25517;52.422;10.782;2023-04-25T00:06:31;8.30;99.90
39847;DHT22;25517;52.422;10.782;2023-04-25T00:08:57;8.30;99.90
39847;DHT22;25517;52.422;10.782;2023-04-25T00:11:23;8.30;99.90
39847;DHT22;25517;52.422;10.782;2023-04-25T00:13:49;8.30;99.90
39847;DHT22;25517;52.422;10.782;2023-04-25T00:16:17;8.30;99.90
39847;DHT22;25517;52.422;10.782;2023-04-25T00:18:43;8.20;99.90
39847;DHT22;25517;52.422;10.782;2023-04-25T00:21:11;8.20;99.90
39847;DHT22;25517;52.422;10.782;2023-04-25T00:23:37;8.20;99.90
39847;DHT22;25517;52.422;10.782;2023-04-25T00:26:04;8.20;99.90
39847;DHT22;25517;52.422;10.782;2023-04-25T00:28:29;8.20;99.90
39847;DHT22;25517;52.422;10.782;2023-04-25T00:30:55;8.20;99.90
39847;DHT22;25517;52.422;10.782;2023-04-25T00:33:20;8.20;99.90
39847;DHT22;25517;52.422;10.782;2023-04-25T00:35:46;8.10;99.90
39847;DHT22;25517;52.422;10.782;2023-04-25T00:38:11;8.10;99.90
39847;DHT22;25517;52.422;10.782;2023-04-25T00:40:37;8.10;99.90
39847;DHT22;25517;52.422;10.782;2023-04-25T00:43:03;8.00;99.90
39847;DHT22;25517;52.422;10.782;2023-04-25T00:45:29;8.00;99.90
39847;DHT22;25517;52.422;10.782;2023-04-25T00:47:56;8.10;99.90
39847;DHT22;25517;52.422;10.782;2023-04-25T00:50:22;8.10;99.90
39847;DHT22;25517;52.422;10.782;2023-04-25T00:52:47;8.10;99.90
39847;DHT22;25517;52.422;10.782;2023-04-25T00:55:14;8.10;99.90
39847;DHT22;25517;52.422;10.782;2023-04-25T00:57:41;8.10;99.90
39847;DHT22;25517;52.422;10.782;2023-04-25T01:00:07;8.00;99.90
39847;DHT22;25517;52.422;10.782;2023-04-25T01:02:35;8.00;99.90
39847;DHT22;25517;52.422;10.782;2023-04-25T01:05:01;8.10;99.90
39847;DHT22;25517;52.422;10.782;2023-04-25T01:07:27;8.00;99.90
39847;DHT22;25517;52.422;10.782;2023-04-25T01:09:53;8.10;99.90
39847;DHT22;25517;52.422;10.782;2023-04-25T01:12:19;8.10;99.90
39847;DHT22;25517;52.422;10.782;2023-04-25T01:14:45;8.10;99.90
39847;DHT22;25517;52.422;10.782;2023-04-25T01:17:11;8.10;99.90
39847;DHT22;25517;52.422;10.782;2023-04-25T01:19:37;8.10;99.90
39847;DHT22;25517;52.422;10.782;2023-04-25T01:22:03;8.10;99.90
39847;DHT22;25517;52.422;10.782;2023-04-25T01:24:29;8.10;99.90
39847;DHT22;25517;52.422;10.782;2023-04-25T01:26:55;8.10;99.90
39847;DHT22;25517;52.422;10.782;2023-04-25T01:29:22;8.10;99.90
39847;DHT22;25517;52.422;10.782;2023-04-25T01:31:48;8.10;99.90
39847;DHT22;25517;52.422;10.782;2023-04-25T01:34:14;8.10;99.90
39847;DHT22;25517;52.422;10.782;2023-04-25T01:36:40;8.00;99.90
39847;DHT22;25517;52.422;10.782;2023-04-25T01:39:06;8.00;99.90
39847;DHT22;25517;52.422;10.782;2023-04-25T01:41:32;8.00;99.90
39847;DHT22;25517;52.422;10.782;2023-04-25T01:43:58;8.00;99.90
39847;DHT22;25517;52.422;10.782;2023-04-25T01:46:24;7.90;99.90
39847;DHT22;25517;52.422;10.782;2023-04-25T01:48:49;7.90;99.90
39847;DHT22;25517;52.422;10.782;2023-04-25T01:51:15;7.90;99.90
39847;DHT22;25517;52.422;10.782;2023-04-25T01:53:41;7.90;99.90
39847;DHT22;25517;52.422;10.782;2023-04-25T01:56:07;7.80;99.90
39847;DHT22;25517;52.422;10.782;2023-04-25T01:58:33;7.80;99.90
39847;DHT22;25517;52.422;10.782;2023-04-25T02:00:59;7.80;99.90
39847;DHT22;25517;52.422;10.782;2023-04-25T02:03:25;7.90;99.90
39847;DHT22;25517;52.422;10.782;2023-04-25T02:05:50;7.90;99.90
39847;DHT22;25517;52.422;10.782;2023-04-25T02:08:17;7.90;99.90
39847;DHT22;25517;52.422;10.782;2023-04-25T02:10:43;7.90;99.90
39847;DHT22;25517;52.422;10.782;2023-04-25T02:13:09;7.90;99.90
39847;DHT22;25517;52.422;10.782;2023-04-25T02:15:34;7.90;99.90
39847;DHT22;25517;52.422;10.782;2023-04-25T02:18:00;7.90;99.90
39847;DHT22;25517;52.422;10.782;2023-04-25T02:20:26;8.00;99.90
39847;DHT22;25517;52.422;10.782;2023-04-25T02:22:52;8.00;99.90
39847;DHT22;25517;52.422;10.782;2023-04-25T02:25:19;7.90;99.90
39847;DHT22;25517;52.422;10.782;2023-04-25T02:27:46;7.90;99.90
39847;DHT22;25517;52.422;10.782;2023-04-25T02:30:11;7.90;99.90
39847;DHT22;25517;52.422;10.782;2023-04-25T02:32:38;7.90;99.90
39847;DHT22;25517;52.422;10.782;2023-04-25T02:35:04;8.00;99.90
39847;DHT22;25517;52.422;10.782;2023-04-25T02:37:30;8.00;99.90
39847;DHT22;25517;52.422;10.782;2023-04-25T02:39:56;8.00;99.90
39847;DHT22;25517;52.422;10.782;2023-04-25T02:42:22;8.00;99.90
39847;DHT22;25517;52.422;10.782;2023-04-25T02:44:47;8.00;99.90
39847;DHT22;25517;52.422;10.782;2023-04-25T02:47:13;8.00;99.90
39847;DHT22;25517;52.422;10.782;2023-04-25T02:49:38;7.90;99.90
39847;DHT22;25517;52.422;10.782;2023-04-25T02:52:04;7.90;99.90
39847;DHT22;25517;52.422;10.782;2023-04-25T02:54:30;7.90;99.90
39847;DHT22;25517;52.422;10.782;2023-04-25T02:56:55;7.90;99.90
39847;DHT22;25517;52.422;10.782;2023-04-25T02:59:21;7.90;99.90
39847;DHT22;25517;52.422;10.782;2023-04-25T03:01:46;7.90;99.90
39847;DHT22;25517;52.422;10.782;2023-04-25T03:04:12;7.90;99.90
39847;DHT22;25517;52.422;10.782;2023-04-25T03:06:38;7.90;99.90
39847;DHT22;25517;52.422;10.782;2023-04-25T03:09:03;7.70;99.90
39847;DHT22;25517;52.422;10.782;2023-04-25T03:11:29;7.60;99.90
39847;DHT22;25517;52.422;10.782;2023-04-25T03:13:55;7.50;99.90
39847;DHT22;25517;52.422;10.782;2023-04-25T03:16:21;7.50;99.90
39847;DHT22;25517;52.422;10.782;2023-04-25T03:18:46;7.40;99.90
39847;DHT22;25517;52.422;10.782;2023-04-25T03:21:12;7.40;99.90
39847;DHT22;25517;52.422;10.782;2023-04-25T03:23:37;7.30;99.90
39847;DHT22;25517;52.422;10.782;2023-04-25T03:26:03;7.30;99.90
39847;DHT22;25517;52.422;10.782;2023-04-25T03:28:29;7.30;99.90
39847;DHT22;25517;52.422;10.782;2023-04-25T03:30:54;7.30;99.90
39847;DHT22;25517;52.422;10.782;2023-04-25T03:33:20;7.20;99.90
39847;DHT22;25517;52.422;10.782;2023-04-25T03:35:46;7.10;99.90
39847;DHT22;25517;52.422;10.782;2023-04-25T03:38:11;7.10;99.90
39847;DHT22;25517;52.422;10.782;2023-04-25T03:40:37;7.10;99.90
39847;DHT22;25517;52.422;10.782;2023-04-25T03:43:02;7.10;99.90
39847;DHT22;25517;52.422;10.782;2023-04-25T03:45:28;7.10;99.90
39847;DHT22;25517;52.422;10.782;2023-04-25T03:47:53;7.10;99.90
39847;DHT22;25517;52.422;10.782;2023-04-25T03:50:19;7.10;99.90
39847;DHT22;25517;52.422;10.782;2023-04-25T03:52:45;7.00;99.90
39847;DHT22;25517;52.422;10.782;2023-04-25T03:55:11;7.00;99.90
39847;DHT22;25517;52.422;10.782;2023-04-25T03:57:36;7.00;99.90
39847;DHT22;25517;52.422;10.782;2023-04-25T04:00:02;7.00;99.90
39847;DHT22;25517;52.422;10.782;2023-04-25T04:02:29;7.00;99.90
39847;DHT22;25517;52.422;10.782;2023-04-25T04:04:54;7.00;99.90
39847;DHT22;25517;52.422;10.782;2023-04-25T04:07:21;7.00;99.90
39847;DHT22;25517;52.422;10.782;2023-04-25T04:09:47;7.00;99.90
39847;DHT22;25517;52.422;10.782;2023-04-25T04:12:12;6.90;99.90
39847;DHT22;25517;52.422;10.782;2023-04-25T04:14:38;6.90;99.90
39847;DHT22;25517;52.422;10.782;2023-04-25T04:17:03;6.90;99.90
39847;DHT22;25517;52.422;10.782;2023-04-25T04:19:29;6.80;99.90
39847;DHT22;25517;52.422;10.782;2023-04-25T04:21:55;6.70;99.90
39847;DHT22;25517;52.422;10.782;2023-04-25T04:24:20;6.70;99.90
39847;DHT22;25517;52.422;10.782;2023-04-25T04:26:46;6.70;99.90
39847;DHT22;25517;52.422;10.782;2023-04-25T04:29:11;6.70;99.90
39847;DHT22;25517;52.422;10.782;2023-04-25T04:31:37;6.70;99.90
39847;DHT22;25517;52.422;10.782;2023-04-25T04:34:02;6.60;99.90
39847;DHT22;25517;52.422;10.782;2023-04-25T04:36:29;6.60;99.90
39847;DHT22;25517;52.422;10.782;2023-04-25T04:38:54;6.70;99.90
39847;DHT22;25517;52.422;10.782;2023-04-25T04:41:21;6.70;99.90
39847;DHT22;25517;52.422;10.782;2023-04-25T04:43:47;6.70;99.90
39847;DHT22;25517;52.422;10.782;2023-04-25T04:46:13;6.70;99.90
39847;DHT22;25517;52.422;10.782;2023-04-25T04:48:38;6.70;99.90
39847;DHT22;25517;52.422;10.782;2023-04-25T04:51:05;6.70;99.90
39847;DHT22;25517;52.422;10.782;2023-04-25T04:53:31;6.80;99.90
39847;DHT22;25517;52.422;10.782;2023-04-25T04:55:57;6.80;99.90
39847;DHT22;25517;52.422;10.782;2023-04-25T04:58:23;6.80;99.90
39847;DHT22;25517;52.422;10.782;2023-04-25T05:00:49;6.80;99.90
39847;DHT22;25517;52.422;10.782;2023-04-25T05:03:14;6.80;99.90
39847;DHT22;25517;52.422;10.782;2023-04-25T05:05:41;6.80;99.90
39847;DHT22;25517;52.422;10.782;2023-04-25T05:08:06;6.80;99.90
39847;DHT22;25517;52.422;10.782;2023-04-25T05:10:32;6.70;99.90
39847;DHT22;25517;52.422;10.782;2023-04-25T05:12:57;6.70;99.90
39847;DHT22;25517;52.422;10.782;2023-04-25T05:15:23;6.60;99.90
39847;DHT22;25517;52.422;10.782;2023-04-25T05:17:48;6.60;99.90
39847;DHT22;25517;52.422;10.782;2023-04-25T05:20:14;6.60;99.90
39847;DHT22;25517;52.422;10.782;2023-04-25T05:22:40;6.60;99.90
39847;DHT22;25517;52.422;10.782;2023-04-25T05:25:10;6.60;99.90
39847;DHT22;25517;52.422;10.782;2023-04-25T05:27:35;6.70;99.90
39847;DHT22;25517;52.422;10.782;2023-04-25T05:30:01;6.70;99.90
39847;DHT22;25517;52.422;10.782;2023-04-25T05:32:27;6.70;99.90
39847;DHT22;25517;52.422;10.782;2023-04-25T05:34:52;6.70;99.90
39847;DHT22;25517;52.422;10.782;2023-04-25T05:37:18;6.70;99.90
39847;DHT22;25517;52.422;10.782;2023-04-25T05:39:43;6.70;99.90
39847;DHT22;25517;52.422;10.782;2023-04-25T05:42:09;6.70;99.90
39847;DHT22;25517;52.422;10.782;2023-04-25T05:44:35;6.70;99.90
39847;DHT22;25517;52.422;10.782;2023-04-25T05:47:01;6.60;99.90
39847;DHT22;25517;52.422;10.782;2023-04-25T05:49:26;6.60;99.90
39847;DHT22;25517;52.422;10.782;2023-04-25T05:51:52;6.70;99.90
39847;DHT22;25517;52.422;10.782;2023-04-25T05:54:17;6.70;99.90
39847;DHT22;25517;52.422;10.782;2023-04-25T05:56:43;6.80;99.90
39847;DHT22;25517;52.422;10.782;2023-04-25T05:59:08;6.90;99.90
39847;DHT22;25517;52.422;10.782;2023-04-25T06:01:34;7.00;99.90
39847;DHT22;25517;52.422;10.782;2023-04-25T06:03:59;7.20;99.90
39847;DHT22;25517;52.422;10.782;2023-04-25T06:06:25;7.30;99.90
39847;DHT22;25517;52.422;10.782;2023-04-25T06:08:51;7.30;99.90
39847;DHT22;25517;52.422;10.782;2023-04-25T06:11:16;7.40;99.90
39847;DHT22;25517;52.422;10.782;2023-04-25T06:13:42;7.40;99.90
39847;DHT22;25517;52.422;10.782;2023-04-25T06:16:07;7.50;99.90
39847;DHT22;25517;52.422;10.782;2023-04-25T06:18:33;7.50;99.90
39847;DHT22;25517;52.422;10.782;2023-04-25T06:20:58;7.40;99.90
39847;DHT22;25517;52.422;10.782;2023-04-25T06:23:24;7.50;99.90
39847;DHT22;25517;52.422;10.782;2023-04-25T06:25:50;7.50;99.90
39847;DHT22;25517;52.422;10.782;2023-04-25T06:28:15;7.40;99.90
39847;DHT22;25517;52.422;10.782;2023-04-25T06:30:41;7.40;99.90
39847;DHT22;25517;52.422;10.782;2023-04-25T06:33:06;7.40;99.90
39847;DHT22;25517;52.422;10.782;2023-04-25T06:35:34;7.50;99.90
39847;DHT22;25517;52.422;10.782;2023-04-25T06:37:59;7.50;99.90
39847;DHT22;25517;52.422;10.782;2023-04-25T06:40:25;7.50;99.90
39847;DHT22;25517;52.422;10.782;2023-04-25T06:42:50;7.50;99.90
39847;DHT22;25517;52.422;10.782;2023-04-25T06:45:16;7.50;99.90
39847;DHT22;25517;52.422;10.782;2023-04-25T06:47:41;7.50;99.90
39847;DHT22;25517;52.422;10.782;2023-04-25T06:50:07;7.50;99.90
39847;DHT22;25517;52.422;10.782;2023-04-25T06:52:33;7.50;99.90
39847;DHT22;25517;52.422;10.782;2023-04-25T06:54:58;7.70;99.90
39847;DHT22;25517;52.422;10.782;2023-04-25T06:57:24;7.70;99.90
39847;DHT22;25517;52.422;10.782;2023-04-25T06:59:49;7.80;99.90
39847;DHT22;25517;52.422;10.782;2023-04-25T07:02:15;7.90;99.90
39847;DHT22;25517;52.422;10.782;2023-04-25T07:04:40;7.80;99.90
39847;DHT22;25517;52.422;10.782;2023-04-25T07:07:06;7.80;99.90
39847;DHT22;25517;52.422;10.782;2023-04-25T07:09:31;7.80;99.90
39847;DHT22;25517;52.422;10.782;2023-04-25T07:11:59;7.80;99.90
39847;DHT22;25517;52.422;10.782;2023-04-25T07:14:27;7.80;99.90
39847;DHT22;25517;52.422;10.782;2023-04-25T07:16:52;7.80;99.90
39847;DHT22;25517;52.422;10.782;2023-04-25T07:19:18;7.80;99.90
39847;DHT22;25517;52.422;10.782;2023-04-25T07:21:43;7.90;99.90
39847;DHT22;25517;52.422;10.782;2023-04-25T07:24:09;8.00;99.90
39847;DHT22;25517;52.422;10.782;2023-04-25T07:26:34;8.10;99.90
39847;DHT22;25517;52.422;10.782;2023-04-25T07:29:00;8.50;99.90
39847;DHT22;25517;52.422;10.782;2023-04-25T07:31:25;8.80;99.90
39847;DHT22;25517;52.422;10.782;2023-04-25T07:33:52;8.90;99.90
39847;DHT22;25517;52.422;10.782;2023-04-25T07:36:17;9.00;99.90
39847;DHT22;25517;52.422;10.782;2023-04-25T07:38:42;9.00;99.90
39847;DHT22;25517;52.422;10.782;2023-04-25T07:41:08;9.00;99.90
39847;DHT22;25517;52.422;10.782;2023-04-25T07:43:34;9.10;99.90
39847;DHT22;25517;52.422;10.782;2023-04-25T07:45:59;9.10;99.90
39847;DHT22;25517;52.422;10.782;2023-04-25T07:48:25;9.00;98.10
39847;DHT22;25517;52.422;10.782;2023-04-25T07:50:50;8.90;98.60
39847;DHT22;25517;52.422;10.782;2023-04-25T07:53:16;9.00;98.30
39847;DHT22;25517;52.422;10.782;2023-04-25T07:55:43;9.20;98.20
39847;DHT22;25517;52.422;10.782;2023-04-25T07:58:09;9.40;99.20
39847;DHT22;25517;52.422;10.782;2023-04-25T08:00:35;9.80;98.90
39847;DHT22;25517;52.422;10.782;2023-04-25T08:03:01;9.80;97.40
39847;DHT22;25517;52.422;10.782;2023-04-25T08:05:26;9.90;95.50
39847;DHT22;25517;52.422;10.782;2023-04-25T08:07:52;10.00;96.80
39847;DHT22;25517;52.422;10.782;2023-04-25T08:10:17;10.20;98.80
39847;DHT22;25517;52.422;10.782;2023-04-25T08:12:43;10.30;96.40
39847;DHT22;25517;52.422;10.782;2023-04-25T08:15:09;10.30;96.70
39847;DHT22;25517;52.422;10.782;2023-04-25T08:17:34;10.10;96.70
39847;DHT22;25517;52.422;10.782;2023-04-25T08:20:00;10.00;97.10
39847;DHT22;25517;52.422;10.782;2023-04-25T08:22:26;9.90;96.50
39847;DHT22;25517;52.422;10.782;2023-04-25T08:24:51;9.80;96.10
39847;DHT22;25517;52.422;10.782;2023-04-25T08:27:18;9.70;96.60
39847;DHT22;25517;52.422;10.782;2023-04-25T08:29:44;9.50;95.60
39847;DHT22;25517;52.422;10.782;2023-04-25T08:32:09;9.30;96.60
39847;DHT22;25517;52.422;10.782;2023-04-25T08:34:35;9.10;97.60
39847;DHT22;25517;52.422;10.782;2023-04-25T08:37:02;9.10;97.70
39847;DHT22;25517;52.422;10.782;2023-04-25T08:39:29;9.10;97.40
39847;DHT22;25517;52.422;10.782;2023-04-25T08:41:56;9.10;98.70
39847;DHT22;25517;52.422;10.782;2023-04-25T08:44:22;9.20;98.10
39847;DHT22;25517;52.422;10.782;2023-04-25T08:46:49;9.20;98.10
39847;DHT22;25517;52.422;10.782;2023-04-25T08:49:16;9.30;97.90
39847;DHT22;25517;52.422;10.782;2023-04-25T08:51:46;9.30;99.80
39847;DHT22;25517;52.422;10.782;2023-04-25T08:54:13;9.40;98.60
39847;DHT22;25517;52.422;10.782;2023-04-25T08:56:41;9.50;99.20
39847;DHT22;25517;52.422;10.782;2023-04-25T08:59:10;10.20;98.90
39847;DHT22;25517;52.422;10.782;2023-04-25T09:01:36;11.30;94.80
39847;DHT22;25517;52.422;10.782;2023-04-25T09:04:01;12.00;93.10
39847;DHT22;25517;52.422;10.782;2023-04-25T09:06:29;12.10;91.70
39847;DHT22;25517;52.422;10.782;2023-04-25T09:09:03;11.80;92.40
39847;DHT22;25517;52.422;10.782;2023-04-25T09:11:30;11.40;93.00
39847;DHT22;25517;52.422;10.782;2023-04-25T09:14:16;10.90;92.10
39847;DHT22;25517;52.422;10.782;2023-04-25T09:19:23;13.30;90.10
39847;DHT22;25517;52.422;10.782;2023-04-25T09:21:59;15.30;88.20
39847;DHT22;25517;52.422;10.782;2023-04-25T09:26:58;18.40;66.80
39847;DHT22;25517;52.422;10.782;2023-04-25T09:29:34;17.70;62.70
39847;DHT22;25517;52.422;10.782;2023-04-25T09:34:43;15.40;66.00
39847;DHT22;25517;52.422;10.782;2023-04-25T09:37:10;14.30;67.90
39847;DHT22;25517;52.422;10.782;2023-04-25T09:39:37;13.40;69.80
39847;DHT22;25517;52.422;10.782;2023-04-25T09:42:03;12.60;71.50
39847;DHT22;25517;52.422;10.782;2023-04-25T09:44:29;12.10;73.40
39847;DHT22;25517;52.422;10.782;2023-04-25T09:46:54;11.40;73.90
39847;DHT22;25517;52.422;10.782;2023-04-25T09:49:20;11.00;75.80
39847;DHT22;25517;52.422;10.782;2023-04-25T09:51:56;10.60;76.60
39847;DHT22;25517;52.422;10.782;2023-04-25T09:54:25;10.30;77.60
39847;DHT22;25517;52.422;10.782;2023-04-25T09:56:52;10.30;80.00
39847;DHT22;25517;52.422;10.782;2023-04-25T09:59:21;10.60;80.00
39847;DHT22;25517;52.422;10.782;2023-04-25T10:01:49;11.20;80.60
39847;DHT22;25517;52.422;10.782;2023-04-25T10:04:25;11.20;76.40
39847;DHT22;25517;52.422;10.782;2023-04-25T10:06:53;11.00;76.70
39847;DHT22;25517;52.422;10.782;2023-04-25T10:09:20;11.00;75.50
39847;DHT22;25517;52.422;10.782;2023-04-25T10:11:46;10.70;76.70
39847;DHT22;25517;52.422;10.782;2023-04-25T10:14:16;10.60;77.40
39847;DHT22;25517;52.422;10.782;2023-04-25T10:16:42;10.40;78.40
39847;DHT22;25517;52.422;10.782;2023-04-25T10:19:09;10.20;78.30
39847;DHT22;25517;52.422;10.782;2023-04-25T10:21:43;10.00;80.00
39847;DHT22;25517;52.422;10.782;2023-04-25T10:24:09;10.10;79.80
39847;DHT22;25517;52.422;10.782;2023-04-25T10:26:35;10.20;79.70
39847;DHT22;25517;52.422;10.782;2023-04-25T10:29:02;10.40;78.70
39847;DHT22;25517;52.422;10.782;2023-04-25T10:31:32;11.00;81.10
39847;DHT22;25517;52.422;10.782;2023-04-25T10:33:59;11.40;78.90
39847;DHT22;25517;52.422;10.782;2023-04-25T10:36:25;12.20;74.30
39847;DHT22;25517;52.422;10.782;2023-04-25T10:38:54;12.40;75.30
39847;DHT22;25517;52.422;10.782;2023-04-25T10:41:21;12.70;76.70
39847;DHT22;25517;52.422;10.782;2023-04-25T10:43:48;13.20;71.90
39847;DHT22;25517;52.422;10.782;2023-04-25T10:46:28;14.00;72.80
39847;DHT22;25517;52.422;10.782;2023-04-25T10:48:57;14.60;70.20
39847;DHT22;25517;52.422;10.782;2023-04-25T10:51:34;14.40;66.40
39847;DHT22;25517;52.422;10.782;2023-04-25T10:54:09;14.70;69.20
39847;DHT22;25517;52.422;10.782;2023-04-25T10:56:42;15.00;70.50
39847;DHT22;25517;52.422;10.782;2023-04-25T10:59:18;15.40;71.30
39847;DHT22;25517;52.422;10.782;2023-04-25T11:01:52;15.40;66.10
39847;DHT22;25517;52.422;10.782;2023-04-25T11:04:24;15.30;65.70
39847;DHT22;25517;52.422;10.782;2023-04-25T11:07:05;14.50;65.00
39847;DHT22;25517;52.422;10.782;2023-04-25T11:09:36;13.80;65.20
39847;DHT22;25517;52.422;10.782;2023-04-25T11:12:03;13.20;68.50
39847;DHT22;25517;52.422;10.782;2023-04-25T11:14:29;13.20;68.70
39847;DHT22;25517;52.422;10.782;2023-04-25T11:16:58;12.80;72.20
39847;DHT22;25517;52.422;10.782;2023-04-25T11:19:25;12.40;71.40
39847;DHT22;25517;52.422;10.782;2023-04-25T11:21:51;12.00;71.30
39847;DHT22;25517;52.422;10.782;2023-04-25T11:24:19;11.70;72.80
39847;DHT22;25517;52.422;10.782;2023-04-25T11:26:48;11.70;74.90
39847;DHT22;25517;52.422;10.782;2023-04-25T11:29:14;11.50;73.70
39847;DHT22;25517;52.422;10.782;2023-04-25T11:31:43;11.60;74.00
39847;DHT22;25517;52.422;10.782;2023-04-25T11:34:10;11.50;73.50
39847;DHT22;25517;52.422;10.782;2023-04-25T11:36:38;11.40;75.00
39847;DHT22;25517;52.422;10.782;2023-04-25T11:39:04;11.40;73.90
39847;DHT22;25517;52.422;10.782;2023-04-25T11:41:31;11.00;74.10
39847;DHT22;25517;52.422;10.782;2023-04-25T11:43:56;10.80;77.10
39847;DHT22;25517;52.422;10.782;2023-04-25T11:46:22;10.60;78.40
39847;DHT22;25517;52.422;10.782;2023-04-25T11:48:47;10.40;78.30
39847;DHT22;25517;52.422;10.782;2023-04-25T11:51:15;10.30;79.50
39847;DHT22;25517;52.422;10.782;2023-04-25T11:53:42;10.20;81.20
39847;DHT22;25517;52.422;10.782;2023-04-25T11:56:10;10.00;80.20
39847;DHT22;25517;52.422;10.782;2023-04-25T11:58:59;10.00;81.10
39847;DHT22;25517;52.422;10.782;2023-04-25T12:01:27;10.30;81.20
39847;DHT22;25517;52.422;10.782;2023-04-25T12:03:53;10.40;82.90
39847;DHT22;25517;52.422;10.782;2023-04-25T12:06:19;10.60;82.20
39847;DHT22;25517;52.422;10.782;2023-04-25T12:09:02;10.70;83.60
39847;DHT22;25517;52.422;10.782;2023-04-25T12:11:32;11.10;81.00
39847;DHT22;25517;52.422;10.782;2023-04-25T12:14:05;11.20;81.00
39847;DHT22;25517;52.422;10.782;2023-04-25T12:16:44;12.20;81.00
39847;DHT22;25517;52.422;10.782;2023-04-25T12:19:14;13.00;77.90
39847;DHT22;25517;52.422;10.782;2023-04-25T12:21:40;13.50;77.70
39847;DHT22;25517;52.422;10.782;2023-04-25T12:26:57;13.40;71.80
39847;DHT22;25517;52.422;10.782;2023-04-25T12:29:26;13.90;75.50
39847;DHT22;25517;52.422;10.782;2023-04-25T12:31:53;14.30;68.00
39847;DHT22;25517;52.422;10.782;2023-04-25T12:34:20;14.00;71.20
39847;DHT22;25517;52.422;10.782;2023-04-25T12:36:45;13.80;70.10
39847;DHT22;25517;52.422;10.782;2023-04-25T12:39:19;13.90;74.10
39847;DHT22;25517;52.422;10.782;2023-04-25T12:41:45;14.10;69.00
39847;DHT22;25517;52.422;10.782;2023-04-25T12:44:11;14.20;69.20
39847;DHT22;25517;52.422;10.782;2023-04-25T12:46:38;14.20;69.30
39847;DHT22;25517;52.422;10.782;2023-04-25T12:49:04;14.20;69.40
39847;DHT22;25517;52.422;10.782;2023-04-25T12:51:31;13.30;70.00
39847;DHT22;25517;52.422;10.782;2023-04-25T12:54:01;13.10;71.60
39847;DHT22;25517;52.422;10.782;2023-04-25T12:56:30;12.70;72.50
39847;DHT22;25517;52.422;10.782;2023-04-25T12:58:56;12.40;72.50
39847;DHT22;25517;52.422;10.782;2023-04-25T13:01:23;12.30;72.70
39847;DHT22;25517;52.422;10.782;2023-04-25T13:03:48;12.30;73.00
39847;DHT22;25517;52.422;10.782;2023-04-25T13:06:18;12.50;74.70
39847;DHT22;25517;52.422;10.782;2023-04-25T13:08:43;12.70;73.80
39847;DHT22;25517;52.422;10.782;2023-04-25T13:11:09;12.50;72.90
39847;DHT22;25517;52.422;10.782;2023-04-25T13:13:35;12.50;70.70
39847;DHT22;25517;52.422;10.782;2023-04-25T13:16:01;12.30;71.50
39847;DHT22;25517;52.422;10.782;2023-04-25T13:18:28;12.10;73.20
39847;DHT22;25517;52.422;10.782;2023-04-25T13:20:54;12.10;74.20
39847;DHT22;25517;52.422;10.782;2023-04-25T13:23:20;12.10;74.60
39847;DHT22;25517;52.422;10.782;2023-04-25T13:25:46;12.00;75.00
39847;DHT22;25517;52.422;10.782;2023-04-25T13:28:13;11.70;74.80
39847;DHT22;25517;52.422;10.782;2023-04-25T13:30:39;11.50;76.40
39847;DHT22;25517;52.422;10.782;2023-04-25T13:33:04;11.30;76.30
39847;DHT22;25517;52.422;10.782;2023-04-25T13:35:34;11.00;76.50
39847;DHT22;25517;52.422;10.782;2023-04-25T13:37:59;10.80;75.00
39847;DHT22;25517;52.422;10.782;2023-04-25T13:40:26;10.90;76.50
39847;DHT22;25517;52.422;10.782;2023-04-25T13:42:52;10.90;75.60
39847;DHT22;25517;52.422;10.782;2023-04-25T13:45:18;11.30;78.20
39847;DHT22;25517;52.422;10.782;2023-04-25T13:47:44;11.80;75.30
39847;DHT22;25517;52.422;10.782;2023-04-25T13:50:09;11.80;74.00
39847;DHT22;25517;52.422;10.782;2023-04-25T13:52:35;11.70;74.20
39847;DHT22;25517;52.422;10.782;2023-04-25T13:55:01;11.50;76.00
39847;DHT22;25517;52.422;10.782;2023-04-25T13:57:30;11.40;75.80
39847;DHT22;25517;52.422;10.782;2023-04-25T13:59:55;11.40;78.40
39847;DHT22;25517;52.422;10.782;2023-04-25T14:02:21;11.50;77.60
39847;DHT22;25517;52.422;10.782;2023-04-25T14:04:46;11.70;80.30
39847;DHT22;25517;52.422;10.782;2023-04-25T14:07:12;12.30;79.20
39847;DHT22;25517;52.422;10.782;2023-04-25T14:09:38;12.90;77.30
39847;DHT22;25517;52.422;10.782;2023-04-25T14:12:03;13.20;74.30
39847;DHT22;25517;52.422;10.782;2023-04-25T14:14:29;13.30;72.00
39847;DHT22;25517;52.422;10.782;2023-04-25T14:16:54;13.60;73.40
39847;DHT22;25517;52.422;10.782;2023-04-25T14:19:20;13.50;72.80
39847;DHT22;25517;52.422;10.782;2023-04-25T14:21:46;13.40;71.70
39847;DHT22;25517;52.422;10.782;2023-04-25T14:24:13;13.00;71.90
39847;DHT22;25517;52.422;10.782;2023-04-25T14:26:38;12.80;71.70
39847;DHT22;25517;52.422;10.782;2023-04-25T14:29:05;12.70;73.70
39847;DHT22;25517;52.422;10.782;2023-04-25T14:31:32;12.40;74.10
39847;DHT22;25517;52.422;10.782;2023-04-25T14:33:57;12.20;74.00
39847;DHT22;25517;52.422;10.782;2023-04-25T14:36:23;11.90;75.10
39847;DHT22;25517;52.422;10.782;2023-04-25T14:38:48;11.70;75.40
39847;DHT22;25517;52.422;10.782;2023-04-25T14:41:15;11.20;81.30
39847;DHT22;25517;52.422;10.782;2023-04-25T14:43:40;10.90;84.70
39847;DHT22;25517;52.422;10.782;2023-04-25T14:46:06;10.20;89.70
39847;DHT22;25517;52.422;10.782;2023-04-25T14:48:32;9.60;92.00
39847;DHT22;25517;52.422;10.782;2023-04-25T14:50:59;9.30;94.90
39847;DHT22;25517;52.422;10.782;2023-04-25T14:53:25;9.10;95.30
39847;DHT22;25517;52.422;10.782;2023-04-25T14:55:51;8.90;96.40
39847;DHT22;25517;52.422;10.782;2023-04-25T14:58:16;8.80;95.40
39847;DHT22;25517;52.422;10.782;2023-04-25T15:00:42;8.80;94.20
39847;DHT22;25517;52.422;10.782;2023-04-25T15:03:09;8.90;92.90
39847;DHT22;25517;52.422;10.782;2023-04-25T15:05:37;9.00;92.40
39847;DHT22;25517;52.422;10.782;2023-04-25T15:08:03;9.60;94.40
39847;DHT22;25517;52.422;10.782;2023-04-25T15:10:28;10.30;92.70
39847;DHT22;25517;52.422;10.782;2023-04-25T15:12:54;10.60;90.80
39847;DHT22;25517;52.422;10.782;2023-04-25T15:15:20;10.90;90.10
39847;DHT22;25517;52.422;10.782;2023-04-25T15:17:46;11.10;88.00
39847;DHT22;25517;52.422;10.782;2023-04-25T15:20:13;11.30;89.10
39847;DHT22;25517;52.422;10.782;2023-04-25T15:22:39;11.40;85.50
39847;DHT22;25517;52.422;10.782;2023-04-25T15:25:06;11.60;88.20
39847;DHT22;25517;52.422;10.782;2023-04-25T15:27:33;11.70;84.40
39847;DHT22;25517;52.422;10.782;2023-04-25T15:29:59;11.70;82.30
39847;DHT22;25517;52.422;10.782;2023-04-25T15:32:25;11.80;83.40